Time;durP1;ratioP1;P1;durP2;ratioP2;P2;SDS_P1;SDS_P2;PMS_P1;PMS_P2;Temp;Humidity;BMP_temperature;BMP_pressure;BME280_temperature;BME280_humidity;BME280_pressure;Samples;Min_cycle;Max_cycle;Signal;HPM_P1;HPM_P2
2022/08/02 00:02:11;;;;;;;1.95;1.20;;;21.00;50.30;;;;;;4940452;29;20432;-80
2022/08/02 00:04:37;;;;;;;2.03;1.42;;;20.90;50.40;;;;;;4924912;29;20115;-85
2022/08/02 00:07:03;;;;;;;1.48;1.10;;;20.90;50.40;;;;;;4940796;29;20032;-81
2022/08/02 00:09:29;;;;;;;1.83;1.10;;;20.90;50.50;;;;;;4925229;29;20380;-81
2022/08/02 00:11:55;;;;;;;1.85;1.20;;;20.90;50.60;;;;;;4957633;29;20060;-81
2022/08/02 00:14:20;;;;;;;1.92;1.30;;;20.80;50.60;;;;;;4940105;29;20038;-80
2022/08/02 00:16:46;;;;;;;1.30;1.20;;;20.80;50.70;;;;;;4957791;29;20435;-82
2022/08/02 00:19:12;;;;;;;2.00;1.13;;;20.80;50.70;;;;;;4940816;29;20043;-81
2022/08/02 00:21:38;;;;;;;2.08;1.30;;;20.80;50.80;;;;;;4940387;29;20031;-81
2022/08/02 00:24:04;;;;;;;1.95;1.17;;;20.80;50.90;;;;;;4940330;29;20043;-80
2022/08/02 00:26:30;;;;;;;1.60;1.10;;;20.70;50.90;;;;;;4940818;29;20031;-80
2022/08/02 00:28:55;;;;;;;2.28;1.20;;;20.70;51.00;;;;;;4940645;29;20476;-84
2022/08/02 00:31:21;;;;;;;1.38;1.00;;;20.70;51.10;;;;;;4940007;29;20038;-81
2022/08/02 00:33:47;;;;;;;1.45;1.00;;;20.70;51.10;;;;;;4956851;29;20046;-82
2022/08/02 00:36:13;;;;;;;1.42;1.15;;;20.60;51.20;;;;;;4923813;29;20027;-80
2022/08/02 00:38:39;;;;;;;1.42;1.10;;;20.60;51.20;;;;;;4923547;29;20035;-81
2022/08/02 00:41:11;;;;;;;1.63;1.17;;;20.60;51.30;;;;;;4923723;29;20046;-81
2022/08/02 00:43:37;;;;;;;1.92;1.20;;;20.60;51.40;;;;;;4956815;29;20032;-82
2022/08/02 00:46:02;;;;;;;2.45;1.33;;;20.60;51.40;;;;;;4923869;29;20106;-82
2022/08/02 00:48:28;;;;;;;1.40;1.00;;;20.50;51.40;;;;;;4956575;29;20031;-81
2022/08/02 00:50:55;;;;;;;2.95;1.20;;;20.50;51.40;;;;;;4939124;29;20139;-81
2022/08/02 00:53:21;;;;;;;1.23;1.02;;;20.50;51.50;;;;;;4956213;29;20031;-83
2022/08/02 00:55:46;;;;;;;1.10;1.00;;;20.40;51.50;;;;;;4924178;29;20479;-84
2022/08/02 00:58:12;;;;;;;1.20;0.90;;;20.40;51.50;;;;;;4956310;29;20035;-86
2022/08/02 01:00:38;;;;;;;1.17;1.00;;;20.40;51.60;;;;;;4939121;29;20062;-80
2022/08/02 01:03:03;;;;;;;1.77;1.08;;;20.40;51.60;;;;;;4956428;29;20371;-81
2022/08/02 01:05:29;;;;;;;1.80;1.00;;;20.30;51.60;;;;;;4939051;29;20520;-81
2022/08/02 01:07:55;;;;;;;2.35;1.20;;;20.40;51.80;;;;;;4939332;29;20067;-82
2022/08/02 01:10:21;;;;;;;1.45;0.98;;;20.30;51.80;;;;;;4956167;29;20112;-81
2022/08/02 01:12:47;;;;;;;0.80;0.77;;;20.30;52.50;;;;;;4922737;29;20055;-80
2022/08/02 01:15:14;;;;;;;1.95;1.30;;;20.30;51.90;;;;;;4939239;29;20387;-81
2022/08/02 01:17:46;;;;;;;2.15;1.35;;;20.20;51.90;;;;;;4955955;29;20030;-80
2022/08/02 01:20:15;;;;;;;0.98;0.90;;;20.20;52.00;;;;;;4938566;29;20039;-82
2022/08/02 01:22:52;;;;;;;1.20;1.10;;;20.20;52.10;;;;;;4938682;29;20027;-81
2022/08/02 01:25:42;;;;;;;1.23;1.00;;;20.20;52.20;;;;;;4955937;29;20499;-80
2022/08/02 01:28:20;;;;;;;1.40;1.05;;;20.20;52.30;;;;;;4939219;29;20037;-80
2022/08/02 01:30:51;;;;;;;1.15;1.02;;;20.10;52.30;;;;;;4955763;29;20031;-80
2022/08/02 01:33:19;;;;;;;1.13;1.05;;;20.10;52.30;;;;;;4955882;29;20059;-82
2022/08/02 01:35:52;;;;;;;1.13;0.90;;;20.10;52.30;;;;;;4938778;29;20023;-83
2022/08/02 01:38:29;;;;;;;2.00;0.98;;;20.00;52.40;;;;;;4938758;29;20074;-80
2022/08/02 01:40:57;;;;;;;1.33;1.00;;;20.00;52.50;;;;;;4938387;29;20062;-80
2022/08/02 01:43:24;;;;;;;1.15;1.10;;;20.00;52.50;;;;;;4956079;29;20475;-81
2022/08/02 01:45:51;;;;;;;1.42;1.00;;;20.00;52.50;;;;;;4955536;29;20023;-80
2022/08/02 01:48:19;;;;;;;1.75;1.13;;;19.90;52.50;;;;;;4955414;29;20031;-84
2022/08/02 01:50:47;;;;;;;1.05;0.95;;;19.90;52.60;;;;;;4938191;29;20043;-82
2022/08/02 01:53:17;;;;;;;1.88;0.93;;;19.90;52.60;;;;;;4938158;29;20035;-82
2022/08/02 01:55:46;;;;;;;1.02;0.93;;;19.90;52.70;;;;;;4955223;29;20038;-83
2022/08/02 01:58:15;;;;;;;1.30;1.20;;;19.90;52.80;;;;;;4938644;29;20081;-81
2022/08/02 02:00:42;;;;;;;1.33;1.00;;;19.90;52.80;;;;;;4938544;29;20109;-82
2022/08/02 02:03:12;;;;;;;0.90;0.90;;;19.80;52.80;;;;;;4955389;29;20031;-80
2022/08/02 02:05:39;;;;;;;1.80;1.20;;;19.80;52.90;;;;;;4922456;29;20042;-79
2022/08/02 02:08:06;;;;;;;1.50;1.13;;;19.80;52.90;;;;;;4955773;29;20030;-80
2022/08/02 02:10:34;;;;;;;1.30;1.13;;;19.80;53.00;;;;;;4922769;29;20086;-82
2022/08/02 02:13:11;;;;;;;1.15;1.00;;;19.70;53.00;;;;;;4921966;29;20444;-82
2022/08/02 02:15:48;;;;;;;1.23;1.00;;;19.70;53.10;;;;;;4938273;29;20046;-80
2022/08/02 02:18:25;;;;;;;1.05;1.00;;;19.70;53.10;;;;;;4955381;28;20027;-80
2022/08/02 02:20:52;;;;;;;2.65;1.40;;;19.60;53.20;;;;;;4941934;29;20047;-82
2022/08/02 02:23:18;;;;;;;1.52;1.17;;;19.60;53.20;;;;;;4942122;29;20372;-80
2022/08/02 02:25:45;;;;;;;1.20;1.10;;;19.60;53.20;;;;;;4941946;29;20028;-80
2022/08/02 02:28:21;;;;;;;1.95;1.20;;;19.60;53.20;;;;;;4941993;29;20113;-81
2022/08/02 02:30:48;;;;;;;1.48;1.13;;;19.50;53.20;;;;;;4926489;29;20488;-81
2022/08/02 02:33:18;;;;;;;1.30;1.10;;;19.60;53.30;;;;;;4942443;29;20027;-80
2022/08/02 02:35:46;;;;;;;1.90;1.35;;;19.50;53.30;;;;;;4926050;29;20023;-80
2022/08/02 02:38:15;;;;;;;1.50;1.20;;;19.50;53.40;;;;;;4926790;29;20131;-83
2022/08/02 02:40:43;;;;;;;1.08;0.90;;;19.50;53.40;;;;;;4942164;29;20058;-82
2022/08/02 02:43:12;;;;;;;1.58;1.20;;;19.50;53.40;;;;;;4958710;29;20109;-83
2022/08/02 02:45:39;;;;;;;1.20;1.10;;;19.50;53.50;;;;;;4941911;29;20054;-80
2022/08/02 02:48:07;;;;;;;1.38;1.10;;;19.40;53.50;;;;;;4941566;29;20032;-80
2022/08/02 02:50:35;;;;;;;1.58;1.17;;;19.40;53.50;;;;;;4925588;29;20027;-80
2022/08/02 02:53:01;;;;;;;1.38;1.20;;;19.40;54.20;;;;;;4958785;29;20035;-83
2022/08/02 02:55:27;;;;;;;1.33;1.23;;;19.40;53.60;;;;;;4941292;29;20031;-80
2022/08/02 02:57:55;;;;;;;2.08;1.17;;;19.30;53.60;;;;;;4941848;29;20035;-80
2022/08/02 03:01:26;;;;;;;1.35;1.15;;;19.30;53.70;;;;;;4941059;29;20468;-81
2022/08/02 03:03:08;;;;;;;2.25;1.42;;;19.30;54.10;;;;;;4928235;29;20130;-81
2022/08/02 03:05:34;;;;;;;1.55;1.08;;;19.30;53.80;;;;;;4958519;29;20090;-84
2022/08/02 03:08:00;;;;;;;2.00;1.30;;;19.30;53.80;;;;;;4941168;29;20483;-83
2022/08/02 03:10:26;;;;;;;1.77;1.30;;;19.30;53.80;;;;;;4909504;29;20122;-83
2022/08/02 03:12:52;;;;;;;1.45;1.35;;;19.20;53.90;;;;;;4941704;29;20059;-83
2022/08/02 03:15:20;;;;;;;1.30;1.20;;;19.20;53.90;;;;;;4941790;29;20480;-82
2022/08/02 03:17:46;;;;;;;1.50;1.23;;;19.20;54.00;;;;;;4941000;29;20035;-82
2022/08/02 03:20:18;;;;;;;1.90;1.40;;;19.20;54.00;;;;;;4958242;29;20067;-81
2022/08/02 03:22:45;;;;;;;1.42;1.33;;;19.20;54.10;;;;;;4941879;29;20066;-81
2022/08/02 03:25:12;;;;;;;2.08;1.45;;;19.20;54.10;;;;;;4958067;29;20062;-80
2022/08/02 03:27:38;;;;;;;1.30;1.20;;;19.20;54.20;;;;;;4941154;29;20035;-80
2022/08/02 03:30:06;;;;;;;2.13;1.35;;;19.10;54.20;;;;;;4940846;29;20082;-82
2022/08/02 03:32:34;;;;;;;1.30;1.20;;;19.10;54.20;;;;;;4941617;29;20094;-80
2022/08/02 03:35:01;;;;;;;1.67;1.40;;;19.10;54.30;;;;;;4957950;29;20047;-82
2022/08/02 03:37:29;;;;;;;1.73;1.20;;;19.10;54.30;;;;;;4940979;29;20050;-80
2022/08/02 03:39:57;;;;;;;1.95;1.35;;;19.10;54.40;;;;;;4909106;29;20534;-81
2022/08/02 03:42:24;;;;;;;1.75;1.30;;;19.10;54.40;;;;;;4941068;29;20046;-83
2022/08/02 03:44:50;;;;;;;1.88;1.33;;;19.10;54.40;;;;;;4940786;29;20032;-80
2022/08/02 03:47:18;;;;;;;1.50;1.20;;;19.00;54.40;;;;;;4940845;29;20034;-81
2022/08/02 03:49:45;;;;;;;1.70;1.30;;;19.00;54.50;;;;;;4940632;29;20031;-83
2022/08/02 03:52:12;;;;;;;1.48;1.20;;;19.00;54.50;;;;;;4925391;29;20058;-81
2022/08/02 03:54:38;;;;;;;1.40;1.30;;;19.00;54.60;;;;;;4940447;29;20090;-80
2022/08/02 03:57:08;;;;;;;1.35;1.23;;;19.00;54.60;;;;;;4957700;29;20027;-81
2022/08/02 03:59:42;;;;;;;1.85;1.42;;;19.00;54.60;;;;;;4940259;29;20047;-81
2022/08/02 04:02:09;;;;;;;1.40;1.30;;;19.00;54.80;;;;;;4940225;29;20114;-80
2022/08/02 04:04:34;;;;;;;1.60;1.50;;;19.00;54.70;;;;;;4940551;29;20031;-79
2022/08/02 04:07:00;;;;;;;1.45;1.33;;;18.90;54.70;;;;;;4957258;29;20081;-82
2022/08/02 04:09:26;;;;;;;2.15;1.50;;;18.90;54.80;;;;;;4958317;29;20035;-82
2022/08/02 04:11:52;;;;;;;2.35;1.35;;;18.90;54.80;;;;;;4925191;29;20170;-84
2022/08/02 04:14:18;;;;;;;1.52;1.27;;;18.90;54.80;;;;;;4941482;29;20504;-83
2022/08/02 04:16:47;;;;;;;1.27;1.17;;;18.90;54.90;;;;;;4925044;29;20040;-85
2022/08/02 04:19:23;;;;;;;1.75;1.40;;;18.90;54.90;;;;;;4940281;29;20066;-84
2022/08/02 04:21:52;;;;;;;1.77;1.45;;;18.90;55.10;;;;;;4940564;29;20458;-84
2022/08/02 04:24:22;;;;;;;1.83;1.33;;;18.90;55.00;;;;;;4940824;29;20031;-84
2022/08/02 04:26:48;;;;;;;1.77;1.30;;;18.90;55.10;;;;;;4941643;29;20031;-85
2022/08/02 04:29:15;;;;;;;2.20;1.50;;;18.90;55.10;;;;;;4940831;29;20036;-84
2022/08/02 04:31:42;;;;;;;1.60;1.50;;;18.90;55.70;;;;;;4925551;29;20023;-83
2022/08/02 04:34:08;;;;;;;3.10;1.40;;;18.90;55.10;;;;;;4940786;29;20051;-81
2022/08/02 04:36:35;;;;;;;1.55;1.35;;;18.90;55.10;;;;;;4941152;29;20035;-82
2022/08/02 04:39:01;;;;;;;1.98;1.35;;;18.90;55.20;;;;;;4940004;29;20042;-82
2022/08/02 04:41:41;;;;;;;1.42;1.30;;;18.90;55.20;;;;;;4940002;29;20032;-81
2022/08/02 04:44:07;;;;;;;2.20;1.30;;;18.80;55.30;;;;;;4940396;29;20049;-84
2022/08/02 04:46:34;;;;;;;1.92;1.27;;;18.80;55.20;;;;;;4924646;29;20027;-85
2022/08/02 04:49:00;;;;;;;1.92;1.23;;;18.80;55.30;;;;;;4909330;29;20567;-82
2022/08/02 04:51:26;;;;;;;1.50;1.40;;;18.80;55.30;;;;;;4924565;29;20066;-84
2022/08/02 04:53:52;;;;;;;1.42;1.33;;;18.90;55.40;;;;;;4923260;29;20082;-82
2022/08/02 04:56:18;;;;;;;1.95;1.40;;;18.80;55.30;;;;;;4939838;29;20032;-80
2022/08/02 04:58:43;;;;;;;1.55;1.20;;;18.80;55.40;;;;;;4956992;29;20031;-82
2022/08/02 05:01:09;;;;;;;1.67;1.38;;;18.80;55.40;;;;;;4924054;29;20159;-85
2022/08/02 05:03:35;;;;;;;1.52;1.42;;;18.80;55.40;;;;;;4924398;29;20046;-84
2022/08/02 05:06:01;;;;;;;1.35;1.25;;;18.80;55.50;;;;;;4924793;29;20456;-85
2022/08/02 05:08:27;;;;;;;1.70;1.38;;;18.80;55.50;;;;;;4939852;29;20087;-83
2022/08/02 05:10:52;;;;;;;1.70;1.42;;;18.80;55.50;;;;;;4939547;29;20042;-82
2022/08/02 05:13:18;;;;;;;2.10;1.30;;;18.80;55.50;;;;;;4924298;29;20035;-85
2022/08/02 05:15:48;;;;;;;1.55;1.23;;;18.80;55.50;;;;;;4957083;29;20039;-83
2022/08/02 05:18:13;;;;;;;1.67;1.42;;;18.80;55.60;;;;;;4956999;29;20027;-84
2022/08/02 05:20:39;;;;;;;1.65;1.50;;;18.80;55.50;;;;;;4923896;29;20094;-83
2022/08/02 05:23:05;;;;;;;2.00;1.27;;;18.80;55.60;;;;;;4940369;29;20447;-81
2022/08/02 05:25:30;;;;;;;1.50;1.27;;;18.80;55.60;;;;;;4956436;29;20106;-82
2022/08/02 05:27:56;;;;;;;2.20;1.40;;;18.80;55.60;;;;;;4923392;29;20035;-82
2022/08/02 05:30:22;;;;;;;1.77;1.38;;;18.80;55.60;;;;;;4956458;29;20035;-82
2022/08/02 05:32:51;;;;;;;1.88;1.40;;;18.80;55.60;;;;;;4923887;29;20436;-84
2022/08/02 05:35:22;;;;;;;2.42;1.38;;;18.80;55.70;;;;;;4924914;29;20062;-85
2022/08/02 05:37:49;;;;;;;1.83;1.17;;;18.80;55.70;;;;;;4939844;29;20448;-84
2022/08/02 05:40:15;;;;;;;1.45;1.20;;;18.80;55.70;;;;;;4939432;29;20036;-83
2022/08/02 05:42:41;;;;;;;1.70;1.52;;;18.80;55.70;;;;;;4955841;29;20368;-82
2022/08/02 05:45:07;;;;;;;1.80;1.35;;;18.90;55.80;;;;;;4922981;29;20047;-84
2022/08/02 05:47:34;;;;;;;1.33;1.23;;;18.90;55.80;;;;;;4939253;29;20031;-83
2022/08/02 05:50:00;;;;;;;1.95;1.50;;;18.90;55.80;;;;;;4939631;29;20062;-83
2022/08/02 05:52:34;;;;;;;1.42;1.30;;;18.80;55.80;;;;;;4922864;28;20067;-83
2022/08/02 05:55:06;;;;;;;1.27;1.17;;;18.90;55.90;;;;;;4938096;29;20030;-83
2022/08/02 05:57:56;;;;;;;1.50;1.40;;;18.80;55.80;;;;;;4938964;29;20031;-82
2022/08/02 06:00:23;;;;;;;1.63;1.40;;;18.80;55.90;;;;;;4955772;29;20035;-83
2022/08/02 06:02:58;;;;;;;2.63;1.58;;;18.90;55.90;;;;;;4939001;29;20031;-83
2022/08/02 06:05:26;;;;;;;1.67;1.40;;;18.80;55.90;;;;;;4938855;29;20543;-84
2022/08/02 06:07:56;;;;;;;2.28;1.40;;;18.90;55.90;;;;;;4939483;29;20506;-83
2022/08/02 06:10:23;;;;;;;2.28;1.58;;;18.90;56.00;;;;;;4923106;29;20122;-82
2022/08/02 06:12:53;;;;;;;2.42;1.42;;;18.90;55.90;;;;;;4906667;29;20496;-83
2022/08/02 06:15:19;;;;;;;1.92;1.35;;;18.90;56.00;;;;;;4955710;29;20071;-82
2022/08/02 06:17:46;;;;;;;1.40;1.30;;;18.90;56.00;;;;;;4923241;29;20023;-83
2022/08/02 06:20:13;;;;;;;1.50;1.40;;;18.90;56.00;;;;;;4955569;29;20043;-83
2022/08/02 06:22:43;;;;;;;1.70;1.33;;;18.90;56.00;;;;;;4938582;29;20122;-81
2022/08/02 06:25:10;;;;;;;2.10;1.50;;;19.00;56.10;;;;;;4922979;29;20024;-81
2022/08/02 06:27:37;;;;;;;1.67;1.20;;;19.00;56.10;;;;;;4923146;29;20031;-83
2022/08/02 06:30:04;;;;;;;1.92;1.38;;;19.00;56.10;;;;;;4923291;29;20126;-81
2022/08/02 06:32:32;;;;;;;1.73;1.42;;;19.00;56.10;;;;;;4938775;29;20028;-82
2022/08/02 06:34:58;;;;;;;1.65;1.20;;;19.00;56.10;;;;;;4906773;29;20141;-83
2022/08/02 06:37:40;;;;;;;1.88;1.30;;;19.00;56.00;;;;;;4922670;29;20042;-83
2022/08/02 06:40:33;;;;;;;1.48;1.17;;;19.10;56.20;;;;;;4955485;29;20039;-83
2022/08/02 06:43:19;;;;;;;1.50;1.30;;;19.10;56.30;;;;;;4955058;29;20106;-83
2022/08/02 06:45:45;;;;;;;1.70;1.30;;;19.10;56.10;;;;;;4922711;29;20028;-83
2022/08/02 06:48:11;;;;;;;2.25;1.33;;;19.10;56.10;;;;;;4923132;29;20519;-83
2022/08/02 06:50:37;;;;;;;1.30;1.20;;;19.10;56.10;;;;;;4956456;29;20072;-82
2022/08/02 06:53:07;;;;;;;1.23;1.13;;;19.10;56.10;;;;;;4938732;29;20087;-82
2022/08/02 06:55:33;;;;;;;1.42;1.10;;;19.20;56.20;;;;;;4923244;29;20031;-83
2022/08/02 06:57:59;;;;;;;1.25;1.15;;;19.20;56.20;;;;;;4938627;29;20028;-83
2022/08/02 07:00:25;;;;;;;2.25;1.50;;;19.20;56.20;;;;;;4938477;29;20067;-83
2022/08/02 07:02:51;;;;;;;1.88;1.50;;;19.20;56.10;;;;;;4955146;29;20031;-83
2022/08/02 07:05:17;;;;;;;1.75;1.35;;;19.30;56.20;;;;;;4924732;29;20027;-83
2022/08/02 07:07:44;;;;;;;1.35;1.25;;;19.30;56.20;;;;;;4958980;29;20464;-82
2022/08/02 07:10:11;;;;;;;2.35;1.27;;;19.30;56.20;;;;;;4926046;29;20058;-83
2022/08/02 07:12:37;;;;;;;1.42;1.33;;;19.30;56.20;;;;;;4925189;29;20059;-84
2022/08/02 07:15:05;;;;;;;1.65;1.40;;;19.40;56.20;;;;;;4925492;29;20031;-84
2022/08/02 07:17:31;;;;;;;1.40;1.30;;;19.40;56.30;;;;;;4941555;29;20075;-83
2022/08/02 07:19:58;;;;;;;1.95;1.40;;;19.40;56.20;;;;;;4941369;29;20067;-83
2022/08/02 07:22:25;;;;;;;1.67;1.30;;;19.40;56.30;;;;;;4925474;29;20035;-83
2022/08/02 07:24:52;;;;;;;2.67;1.60;;;19.50;56.40;;;;;;4941479;29;20033;-83
2022/08/02 07:27:19;;;;;;;1.80;1.30;;;19.50;56.40;;;;;;4958838;29;20031;-84
2022/08/02 07:29:45;;;;;;;2.17;1.60;;;19.50;56.40;;;;;;4925594;29;20035;-83
2022/08/02 07:32:11;;;;;;;1.40;1.30;;;19.50;56.40;;;;;;4942098;29;20038;-82
2022/08/02 07:34:36;;;;;;;1.90;1.48;;;19.50;56.40;;;;;;4941376;29;20035;-82
2022/08/02 07:37:02;;;;;;;1.73;1.30;;;19.60;56.50;;;;;;4941364;29;20114;-83
2022/08/02 07:39:28;;;;;;;1.52;1.40;;;19.60;56.50;;;;;;4925326;29;20164;-82
2022/08/02 07:41:54;;;;;;;2.00;1.50;;;19.70;56.60;;;;;;4940753;29;20031;-83
2022/08/02 07:44:20;;;;;;;1.92;1.38;;;19.70;56.60;;;;;;4925317;29;20114;-83
2022/08/02 07:46:47;;;;;;;1.42;1.30;;;19.70;56.60;;;;;;4941110;29;20114;-84
2022/08/02 07:49:17;;;;;;;1.73;1.42;;;19.80;56.60;;;;;;4940995;29;20364;-82
2022/08/02 07:51:44;;;;;;;1.73;1.45;;;19.70;56.60;;;;;;4925239;29;20047;-83
2022/08/02 07:54:10;;;;;;;2.33;1.55;;;19.80;56.60;;;;;;4940783;29;20402;-83
2022/08/02 07:56:36;;;;;;;2.13;1.35;;;19.80;56.60;;;;;;4940952;29;20039;-83
2022/08/02 07:59:02;;;;;;;2.22;1.60;;;19.90;56.60;;;;;;4925038;29;20046;-83
2022/08/02 08:01:28;;;;;;;1.63;1.45;;;20.00;56.70;;;;;;4957629;29;20034;-83
2022/08/02 08:03:54;;;;;;;1.45;1.33;;;20.00;56.60;;;;;;4940542;29;20361;-83
2022/08/02 08:06:19;;;;;;;1.95;1.52;;;20.10;56.60;;;;;;4924828;29;20122;-83
2022/08/02 08:08:45;;;;;;;2.10;1.50;;;20.10;56.60;;;;;;4924580;29;20101;-83
2022/08/02 08:11:11;;;;;;;1.60;1.50;;;20.10;56.50;;;;;;4957328;28;20051;-83
2022/08/02 08:13:37;;;;;;;1.60;1.50;;;20.20;56.50;;;;;;4924629;29;20118;-84
2022/08/02 08:16:03;;;;;;;2.40;1.65;;;20.30;56.50;;;;;;4939828;29;20054;-82
2022/08/02 08:18:28;;;;;;;2.20;1.60;;;20.40;56.50;;;;;;4924665;29;20037;-83
2022/08/02 08:20:54;;;;;;;1.90;1.60;;;20.40;56.50;;;;;;4940274;29;20050;-83
2022/08/02 08:23:20;;;;;;;2.58;1.98;;;20.50;56.50;;;;;;4940402;29;20111;-83
2022/08/02 08:25:46;;;;;;;2.55;1.77;;;20.50;56.40;;;;;;4940270;29;20043;-84
2022/08/02 08:28:11;;;;;;;2.53;1.80;;;20.60;56.50;;;;;;4940383;29;20114;-83
2022/08/02 08:30:40;;;;;;;2.60;1.80;;;20.70;56.50;;;;;;4924121;29;20086;-84
2022/08/02 08:33:06;;;;;;;2.90;2.20;;;20.80;56.60;;;;;;4957223;29;20035;-83
2022/08/02 08:35:32;;;;;;;2.83;1.98;;;20.90;56.60;;;;;;4924367;29;20049;-83
2022/08/02 08:37:58;;;;;;;2.90;2.05;;;21.00;56.60;;;;;;4940261;29;20085;-84
2022/08/02 08:40:24;;;;;;;2.90;2.00;;;21.00;56.60;;;;;;4924048;29;20151;-83
2022/08/02 08:42:50;;;;;;;3.85;2.15;;;21.10;56.60;;;;;;4939974;29;20028;-83
2022/08/02 08:45:16;;;;;;;3.05;2.00;;;21.20;56.60;;;;;;4940177;29;20030;-83
2022/08/02 08:47:44;;;;;;;2.85;2.08;;;21.30;56.60;;;;;;4939688;29;20070;-82
2022/08/02 08:50:16;;;;;;;3.40;2.20;;;21.40;56.60;;;;;;4957012;29;20035;-82
2022/08/02 08:52:56;;;;;;;2.85;2.00;;;21.50;56.60;;;;;;4939746;29;20380;-82
2022/08/02 08:55:24;;;;;;;3.67;2.22;;;21.60;56.60;;;;;;4956644;29;20027;-81
2022/08/02 08:57:50;;;;;;;2.30;1.90;;;21.70;56.40;;;;;;4939174;29;20101;-83
2022/08/02 09:00:16;;;;;;;2.10;1.90;;;21.80;56.40;;;;;;4956868;29;20075;-83
2022/08/02 09:02:42;;;;;;;2.90;2.10;;;21.90;56.30;;;;;;4923759;29;20035;-84
2022/08/02 09:05:14;;;;;;;2.17;1.90;;;22.00;56.30;;;;;;4939282;29;20023;-83
2022/08/02 09:07:43;;;;;;;2.05;1.85;;;22.10;56.30;;;;;;4956226;29;20053;-84
2022/08/02 09:10:35;;;;;;;2.20;1.85;;;22.20;56.20;;;;;;4956834;29;20046;-83
2022/08/02 09:13:06;;;;;;;2.95;2.00;;;22.30;56.30;;;;;;4939357;29;20110;-84
2022/08/02 09:15:32;;;;;;;2.85;1.88;;;22.40;56.10;;;;;;4939336;29;20027;-83
2022/08/02 09:17:58;;;;;;;2.80;2.00;;;22.40;56.00;;;;;;4939631;29;20475;-83
2022/08/02 09:20:24;;;;;;;1.95;1.70;;;22.50;56.00;;;;;;4939038;29;20047;-83
2022/08/02 09:23:10;;;;;;;2.28;1.80;;;22.60;56.00;;;;;;4922771;29;20101;-83
2022/08/02 09:25:36;;;;;;;2.30;1.75;;;22.80;56.10;;;;;;4939813;29;20043;-83
2022/08/02 09:28:06;;;;;;;2.08;1.75;;;22.80;55.90;;;;;;4938964;29;20058;-83
2022/08/02 09:30:32;;;;;;;2.22;1.80;;;22.90;56.00;;;;;;4938996;29;20103;-83
2022/08/02 09:32:58;;;;;;;2.17;1.70;;;23.00;55.90;;;;;;4922948;29;20034;-81
2022/08/02 09:35:31;;;;;;;2.95;1.90;;;23.10;55.90;;;;;;4939029;29;20043;-83
2022/08/02 09:38:11;;;;;;;1.65;1.55;;;23.20;55.80;;;;;;4939065;29;20065;-84
2022/08/02 09:40:38;;;;;;;1.95;1.58;;;23.20;55.80;;;;;;4922991;29;20074;-82
2022/08/02 09:43:05;;;;;;;2.17;1.80;;;23.30;55.70;;;;;;4939555;29;20031;-83
2022/08/02 09:45:33;;;;;;;1.42;1.33;;;23.50;55.60;;;;;;4939293;29;20106;-83
2022/08/02 09:48:08;;;;;;;1.60;1.35;;;23.50;55.60;;;;;;4939525;29;20034;-83
2022/08/02 09:50:40;;;;;;;1.65;1.42;;;23.60;55.60;;;;;;4939294;29;20070;-83
2022/08/02 09:53:12;;;;;;;1.88;1.48;;;23.70;55.50;;;;;;4956372;29;20127;-84
2022/08/02 09:55:40;;;;;;;1.98;1.58;;;23.80;55.50;;;;;;4956412;29;20038;-84
2022/08/02 09:58:18;;;;;;;1.40;1.30;;;23.90;55.40;;;;;;4939732;29;20034;-84
2022/08/02 10:00:52;;;;;;;1.83;1.38;;;24.00;55.40;;;;;;4923255;29;20043;-83
2022/08/02 10:03:18;;;;;;;1.30;1.20;;;24.10;55.40;;;;;;4939403;29;20027;-83
2022/08/02 10:05:50;;;;;;;1.33;1.23;;;24.20;55.40;;;;;;4922672;29;20034;-83
2022/08/02 10:08:16;;;;;;;1.42;1.20;;;24.30;55.40;;;;;;4938581;29;20051;-84
2022/08/02 10:10:42;;;;;;;1.45;1.10;;;24.40;55.30;;;;;;4938803;29;20032;-83
2022/08/02 10:13:09;;;;;;;1.30;1.20;;;24.50;55.30;;;;;;4938070;29;20043;-83
2022/08/02 10:15:36;;;;;;;1.00;0.95;;;24.60;55.30;;;;;;4923399;29;20033;-83
2022/08/02 10:18:04;;;;;;;1.33;1.23;;;24.70;55.30;;;;;;4922883;29;20036;-85
2022/08/02 10:20:35;;;;;;;1.30;1.20;;;24.80;55.20;;;;;;4938802;29;20078;-83
2022/08/02 10:23:02;;;;;;;2.35;1.30;;;24.90;55.20;;;;;;4955974;29;20066;-84
2022/08/02 10:25:29;;;;;;;1.15;1.02;;;25.00;55.20;;;;;;4954915;29;20042;-85
2022/08/02 10:27:56;;;;;;;1.20;1.10;;;25.10;55.20;;;;;;4938200;29;20027;-83
2022/08/02 10:30:23;;;;;;;1.17;1.08;;;25.20;55.20;;;;;;4954921;29;20062;-84
2022/08/02 10:32:52;;;;;;;1.17;1.08;;;25.30;55.20;;;;;;4922723;29;20454;-84
2022/08/02 10:35:22;;;;;;;1.00;1.00;;;25.40;55.20;;;;;;4938046;29;20039;-83
2022/08/02 10:37:52;;;;;;;0.93;0.93;;;25.50;55.20;;;;;;4938330;29;20506;-84
2022/08/02 10:40:25;;;;;;;2.13;1.20;;;25.60;55.10;;;;;;4940446;29;20039;-83
2022/08/02 10:42:52;;;;;;;1.30;1.05;;;25.70;55.10;;;;;;4958810;29;20036;-82
2022/08/02 10:45:20;;;;;;;1.05;1.00;;;25.80;55.10;;;;;;4958523;29;20053;-84
2022/08/02 10:48:00;;;;;;;1.05;1.00;;;25.90;55.00;;;;;;4941621;29;20055;-84
2022/08/02 10:50:44;;;;;;;0.93;0.90;;;26.00;55.10;;;;;;4941828;29;20371;-83
2022/08/02 10:53:30;;;;;;;0.80;0.80;;;26.10;55.10;;;;;;4958862;29;20364;-83
2022/08/02 10:56:01;;;;;;;0.80;0.80;;;26.20;55.00;;;;;;4926114;29;20031;-84
2022/08/02 10:58:30;;;;;;;1.10;1.02;;;26.30;54.80;;;;;;4925850;29;20122;-84
2022/08/02 11:00:57;;;;;;;0.82;0.82;;;26.30;54.80;;;;;;4942113;29;20051;-84
2022/08/02 11:03:38;;;;;;;0.90;0.90;;;26.40;54.90;;;;;;4941545;29;20027;-84
2022/08/02 11:06:08;;;;;;;1.00;0.90;;;26.50;55.00;;;;;;4958723;29;20031;-83
2022/08/02 11:08:34;;;;;;;1.23;1.00;;;26.50;54.90;;;;;;4941187;29;20086;-84
2022/08/02 11:11:09;;;;;;;1.10;1.00;;;26.60;55.20;;;;;;4940967;28;20039;-83
2022/08/02 11:14:05;;;;;;;1.08;0.98;;;26.70;55.00;;;;;;4958507;29;20032;-83
2022/08/02 11:16:56;;;;;;;1.15;0.93;;;26.80;55.20;;;;;;4958522;29;20491;-84
2022/08/02 11:19:26;;;;;;;1.10;1.00;;;26.80;55.20;;;;;;4940958;29;20134;-84
2022/08/02 11:22:06;;;;;;;1.00;1.00;;;26.90;55.20;;;;;;4925039;29;20027;-83
2022/08/02 11:24:36;;;;;;;1.20;1.10;;;26.90;55.30;;;;;;4958264;29;20035;-83
2022/08/02 11:27:04;;;;;;;0.82;0.82;;;27.00;55.30;;;;;;4940561;29;20039;-83
2022/08/02 11:29:41;;;;;;;0.77;0.77;;;27.00;55.40;;;;;;4941222;29;20032;-84
2022/08/02 11:32:13;;;;;;;0.95;0.90;;;27.10;55.60;;;;;;4957914;29;20027;-84
2022/08/02 11:34:41;;;;;;;1.67;0.93;;;27.20;55.60;;;;;;4925890;29;20373;-82
2022/08/02 11:37:07;;;;;;;1.10;1.00;;;27.20;55.80;;;;;;4958580;29;20041;-83
2022/08/02 11:39:32;;;;;;;0.93;0.93;;;27.30;55.90;;;;;;4940677;29;20134;-83
2022/08/02 11:41:59;;;;;;;1.00;0.98;;;27.30;56.00;;;;;;4941145;29;20042;-83
2022/08/02 11:44:27;;;;;;;0.85;0.75;;;27.40;56.30;;;;;;4957995;29;20023;-82
2022/08/02 11:46:58;;;;;;;1.25;1.00;;;27.40;56.30;;;;;;4958015;29;20031;-83
2022/08/02 11:49:24;;;;;;;1.10;1.00;;;27.50;56.50;;;;;;4945143;29;20071;-82
2022/08/02 11:52:05;;;;;;;1.02;0.98;;;27.50;56.50;;;;;;4932208;29;20035;-83
2022/08/02 11:54:33;;;;;;;1.13;1.08;;;27.60;56.60;;;;;;4943374;29;20028;-85
2022/08/02 11:57:14;;;;;;;1.27;1.00;;;27.60;56.70;;;;;;4958568;29;20031;-83
2022/08/02 11:59:41;;;;;;;1.20;1.10;;;27.60;57.00;;;;;;4940195;29;20483;-84
2022/08/02 12:02:08;;;;;;;1.48;1.10;;;27.70;56.90;;;;;;4957444;29;20039;-87
2022/08/02 12:04:34;;;;;;;1.05;1.05;;;27.80;57.00;;;;;;4957761;29;20095;-83
2022/08/02 12:07:01;;;;;;;0.80;0.80;;;27.80;57.00;;;;;;4957981;29;20042;-83
2022/08/02 12:09:30;;;;;;;1.35;0.90;;;27.80;57.00;;;;;;4924732;29;20040;-82
2022/08/02 12:11:56;;;;;;;0.80;0.80;;;27.90;57.10;;;;;;4957645;28;20051;-83
2022/08/02 12:14:24;;;;;;;0.82;0.82;;;27.90;57.20;;;;;;4940813;29;20039;-83
2022/08/02 12:19:36;;;;;;;1.10;0.93;;;28.00;57.30;;;;;;4940037;29;20042;-83
2022/08/02 12:22:22;;;;;;;0.88;0.88;;;28.00;57.20;;;;;;4940095;29;20042;-84
2022/08/02 12:24:51;;;;;;;1.20;1.10;;;28.10;57.20;;;;;;4940111;29;20031;-84
2022/08/02 12:27:37;;;;;;;0.85;0.85;;;28.10;57.10;;;;;;4939998;29;20031;-83
2022/08/02 12:30:02;;;;;;;1.58;0.90;;;28.20;57.30;;;;;;4924396;29;20163;-84
2022/08/02 12:32:29;;;;;;;2.05;0.93;;;28.20;57.10;;;;;;4956918;29;20555;-84
2022/08/02 12:35:01;;;;;;;0.80;0.80;;;28.20;57.00;;;;;;4940360;29;20396;-83
2022/08/02 12:37:27;;;;;;;0.90;0.90;;;28.20;56.90;;;;;;4939660;29;20451;-83
2022/08/02 12:39:53;;;;;;;1.00;1.00;;;28.30;57.00;;;;;;4923841;29;20039;-84
2022/08/02 12:42:19;;;;;;;0.82;0.82;;;28.30;56.90;;;;;;4908218;29;20034;-84
2022/08/02 12:44:52;;;;;;;1.60;0.88;;;28.30;56.80;;;;;;4924500;29;20090;-85
2022/08/02 12:47:20;;;;;;;1.27;0.90;;;28.40;56.80;;;;;;4939670;29;20114;-85
2022/08/02 12:49:46;;;;;;;0.85;0.85;;;28.40;56.80;;;;;;4939791;29;20055;-83
2022/08/02 12:52:23;;;;;;;0.93;0.90;;;28.40;56.70;;;;;;4939818;29;20035;-83
2022/08/02 12:54:49;;;;;;;1.15;1.00;;;28.40;56.70;;;;;;4956851;29;20062;-84
2022/08/02 12:57:17;;;;;;;0.80;0.80;;;28.50;56.70;;;;;;4939721;29;20090;-84
2022/08/02 12:59:49;;;;;;;0.93;0.80;;;28.50;56.70;;;;;;4956484;29;20467;-82